Lubbock, TX

11:23 PM CST on February 26, 2015 (GMT -0600)
APRSWXNET Lubbock TX US | Change Station
CLOSE
Current Station
Personal Weather Station
Location: Lubbock, TX
Elevation: 3221 ft
Nearby Weather Stations
Active Advisory: Winter Weather Advisory

Elev 3221 ft 33.58 °N, 101.88 °W | Updated 23 minutes ago

Overcast
Overcast
23 °F
Feels Like 15 °F
N
7
Wind Variable Wind from East
Gusts 25.0 mph

Today
High -- | Low -- °F
--% Chance of Precip.
Yesterday
High -- | Low -- °F
Precip. -- in
7:19 AM 6:41 PM
Waxing Gibbous, 65% visible
Pressure 30.34 in
Visibility 10.0 miles
Clouds Overcast 3900 ft
Windchill 15 °F
Dew Point 11 °F
Humidity 60%
Rainfall 0.00 in
Snow Depth Not available.
UV 0 out of 12
Pollen 3.60 out of 12
Air Quality Not available.
Flu Activity Not available.
METAR KLBB 270453Z 08012KT 10SM OVC039 M05/M11 A3027 RMK AO2 SLP274 T10501111

More Conditions Fewer Conditions

Pressure 30.34 in
Visibility 10.0 miles
Clouds Overcast 3900 ft
Windchill 15 °F
Dew Point 11 °F
Humidity 60%
Rainfall 0.00 in
Snow Depth Not available.
UV 0 out of 12
Pollen 3.60 out of 12
Air Quality Not available.
Flu Activity Not available.
METAR KLBB 270453Z 08012KT 10SM OVC039 M05/M11 A3027 RMK AO2 SLP274 T10501111

More Conditions Fewer Conditions

10-Day Weather Forecast

Almanac

Astronomy

Feb. 26, 2015 Rise Set
Actual Time
Civil Twilight
Nautical Twilight
Astronomical Twilight
Moon
Length of Visible Light
Length of Day
Tomorrow will be .
, % of the Moon is Illuminated

Today's Extremes

State Highs State Lows

Community

WunderPhotos

Upload Photos

1,800,638 photos uploaded!

WunderBlogs® & News

Nearby

Air Quality

  Air Quality AQ Index Pollutant
Not available.

Snow Depth

Station Depth Elevation

Earthquake Activity

City Distance Mag. Time & Date
Minimum magnitude displayed is 2.5.

Coastal Water Temperatures

Place Temperature

Nearby Weather Stations

Winter Weather Advisory
Statement as of 3:16 PM CST on February 26, 2015

... Winter Weather Advisory in effect from midnight tonight to
noon CST Friday...

The National Weather Service in Lubbock has issued a Winter
Weather Advisory for snow... which is in effect from midnight
tonight to noon CST Friday.

* Timing... accumulation of snow beginning near or shortly after
midnight tonight and persisting through Friday morning.

* Snowfall... 1 to 4 inches with locally higher amounts. The
heaviest amounts are most likely to fall across the southern
Texas Panhandle from Farwell and Friona to Tulia and Silverton.
The lightest amounts are most likely to occur in the southern
South Plains from Denver City to Post.

* Main impact... snow covered and icy roadways will result in
hazardous travel conditions.

Precautionary/preparedness actions...

A Winter Weather Advisory for snow means that periods of snow
will cause primarily travel difficulties. Be prepared for snow
covered roads and limited visibilities... and use caution while
driving.